createdAt,value
2019-05-25T00:00:11.995Z,62.20
2019-05-25T00:01:11.979Z,61.49
2019-05-25T00:02:11.979Z,61.52
2019-05-25T00:03:11.955Z,62.02
2019-05-25T00:04:11.978Z,61.93
2019-05-25T00:05:11.939Z,62.23
2019-05-25T00:06:11.926Z,63.35
2019-05-25T00:07:11.979Z,62.43
2019-05-25T00:08:11.902Z,62.84
2019-05-25T00:09:11.899Z,62.63
2019-05-25T00:10:11.906Z,63.24
2019-05-25T00:11:11.874Z,62.23
2019-05-25T00:12:11.873Z,63.04
2019-05-25T00:13:11.851Z,61.82
2019-05-25T00:14:11.837Z,62.23
2019-05-25T00:15:11.851Z,63.35
2019-05-25T00:16:11.819Z,62.87
2019-05-25T00:17:11.834Z,62.66
2019-05-25T00:18:11.809Z,62.97
2019-05-25T00:19:11.793Z,63.79
2019-05-25T00:20:11.779Z,63.79
2019-05-25T00:21:14.009Z,63.38
2019-05-25T00:22:11.754Z,62.77
2019-05-25T00:23:11.742Z,63.58
2019-05-25T00:24:12.903Z,63.89
2019-05-25T00:25:11.724Z,63.79
2019-05-25T00:26:11.744Z,63.82
2019-05-25T00:27:11.702Z,63.48
2019-05-25T00:28:11.694Z,64.12
2019-05-25T00:29:11.679Z,64.29
2019-05-25T00:30:11.681Z,63.48
2019-05-25T00:31:11.691Z,64.20
2019-05-25T00:32:11.650Z,63.38
2019-05-25T00:33:11.634Z,64.12
2019-05-25T00:34:11.799Z,64.53
2019-05-25T00:35:11.651Z,64.09
2019-05-25T00:36:11.623Z,64.70
2019-05-25T00:37:11.621Z,63.82
2019-05-25T00:38:11.583Z,64.12
2019-05-25T00:39:11.587Z,64.12
2019-05-25T00:40:11.563Z,64.63
2019-05-25T00:41:11.560Z,64.12
2019-05-25T00:42:11.542Z,63.92
2019-05-25T00:43:11.548Z,65.17
2019-05-25T00:44:11.533Z,65.17
2019-05-25T00:45:11.509Z,65.14
2019-05-25T00:46:11.531Z,65.58
2019-05-25T00:47:11.487Z,64.76
2019-05-25T00:48:11.523Z,65.07
2019-05-25T00:49:11.466Z,64.94
2019-05-25T00:50:11.458Z,65.58
2019-05-25T00:51:11.450Z,64.76
2019-05-25T00:52:11.500Z,65.07
2019-05-25T00:53:11.453Z,63.85
2019-05-25T00:54:25.404Z,65.58
2019-05-25T00:55:12.406Z,65.58
2019-05-25T00:56:11.392Z,65.51
2019-05-25T00:57:11.398Z,65.92
2019-05-25T00:58:11.372Z,65.92
2019-05-25T00:59:11.394Z,65.31
2019-05-25T01:00:11.351Z,65.31
2019-05-25T01:01:11.356Z,64.90
2019-05-25T01:02:11.359Z,65.17
2019-05-25T01:03:11.317Z,65.51
2019-05-25T01:04:11.310Z,64.69
2019-05-25T01:05:11.351Z,65.31
2019-05-25T01:06:11.288Z,64.28
2019-05-25T01:07:11.291Z,64.90
2019-05-25T01:08:11.269Z,66.12
2019-05-25T01:09:11.254Z,66.22
2019-05-25T01:10:11.268Z,65.41
2019-05-25T01:11:18.784Z,65.31
2019-05-25T01:12:11.228Z,65.41
2019-05-25T01:13:11.244Z,65.92
2019-05-25T01:14:11.224Z,66.33
2019-05-25T01:15:11.214Z,65.71
2019-05-25T01:16:11.218Z,65.03
2019-05-25T01:17:11.171Z,66.12
2019-05-25T01:18:11.160Z,66.12
2019-05-25T01:19:11.161Z,66.22
2019-05-25T01:20:11.509Z,66.33
2019-05-25T01:21:11.131Z,66.42
2019-05-25T01:22:11.118Z,66.22
2019-05-25T01:23:11.130Z,66.12
2019-05-25T01:24:11.103Z,66.12
2019-05-25T01:25:11.086Z,66.02
2019-05-25T01:26:11.130Z,66.22
2019-05-25T01:27:11.069Z,66.42
2019-05-25T01:28:11.091Z,65.92
2019-05-25T01:29:11.042Z,66.12
2019-05-25T01:30:11.067Z,66.63
2019-05-25T01:31:11.026Z,66.46
2019-05-25T01:32:11.026Z,66.63
2019-05-25T01:33:11.003Z,65.92
2019-05-25T01:34:11.019Z,65.92
2019-05-25T01:35:11.008Z,66.22
2019-05-25T01:36:11.002Z,66.12
2019-05-25T01:37:10.962Z,66.22
2019-05-25T01:38:10.958Z,65.92
2019-05-25T01:39:10.941Z,65.81
2019-05-25T01:40:10.929Z,65.71
2019-05-25T01:41:10.962Z,65.81
2019-05-25T01:42:10.913Z,66.33
2019-05-25T01:43:10.922Z,66.22
2019-05-25T01:44:10.885Z,66.12
2019-05-25T01:45:10.897Z,66.46
2019-05-25T01:46:10.887Z,66.05
2019-05-25T01:47:10.862Z,67.99
2019-05-25T01:48:10.848Z,67.58
2019-05-25T01:49:10.832Z,67.38
2019-05-25T01:50:10.824Z,67.89
2019-05-25T01:51:10.845Z,67.27
2019-05-25T01:52:10.813Z,67.27
2019-05-25T01:53:11.729Z,67.58
2019-05-25T01:54:10.780Z,68.74
2019-05-25T01:55:10.825Z,68.94
2019-05-25T01:56:10.758Z,69.15
2019-05-25T01:57:10.800Z,69.15
2019-05-25T01:58:10.748Z,68.74
2019-05-25T01:59:10.730Z,68.94
2019-05-25T02:00:10.846Z,69.24
2019-05-25T02:01:10.721Z,68.53
2019-05-25T02:02:10.719Z,69.65
2019-05-25T02:03:10.684Z,70.00
2019-05-25T02:04:10.679Z,69.28
2019-05-25T02:05:10.707Z,69.79
2019-05-25T02:06:10.669Z,69.18
2019-05-25T02:07:10.668Z,70.00
2019-05-25T02:08:10.646Z,70.51
2019-05-25T02:09:10.632Z,69.89
2019-05-25T02:10:10.614Z,69.48
2019-05-25T02:11:10.612Z,70.51
2019-05-25T02:12:10.662Z,70.20
2019-05-25T02:13:10.590Z,69.72
2019-05-25T02:14:10.573Z,70.00
2019-05-25T02:15:10.569Z,69.52
2019-05-25T02:16:10.551Z,69.48
2019-05-25T02:17:10.561Z,69.48
2019-05-25T02:18:10.561Z,69.62
2019-05-25T02:19:10.520Z,69.72
2019-05-25T02:20:10.518Z,69.31
2019-05-25T02:21:10.502Z,70.34
2019-05-25T02:22:10.516Z,71.05
2019-05-25T02:23:10.473Z,70.75
2019-05-25T02:24:10.464Z,70.84
2019-05-25T02:25:17.851Z,70.54
2019-05-25T02:26:11.447Z,70.84
2019-05-25T02:27:10.436Z,70.78
2019-05-25T02:28:10.451Z,71.08
2019-05-25T02:29:10.437Z,70.67
2019-05-25T02:30:10.473Z,71.05
2019-05-25T02:31:10.391Z,70.88
2019-05-25T02:32:10.387Z,71.08
2019-05-25T02:33:10.393Z,72.41
2019-05-25T02:34:10.364Z,71.90
2019-05-25T02:35:10.390Z,71.70
2019-05-25T02:36:10.340Z,71.70
2019-05-25T02:37:10.329Z,71.70
2019-05-25T02:38:10.340Z,71.70
2019-05-25T02:39:10.310Z,71.80
2019-05-25T02:40:10.300Z,71.59
2019-05-25T02:41:10.457Z,73.23
2019-05-25T02:42:10.279Z,72.82
2019-05-25T02:43:10.282Z,73.16
2019-05-25T02:44:10.261Z,72.52
2019-05-25T02:45:10.244Z,71.90
2019-05-25T02:46:10.250Z,72.11
2019-05-25T02:47:10.226Z,72.62
2019-05-25T02:48:10.232Z,72.52
2019-05-25T02:49:10.200Z,72.72
2019-05-25T02:50:10.195Z,73.03
2019-05-25T02:51:10.178Z,73.85
2019-05-25T02:52:10.191Z,74.05
2019-05-25T02:53:10.186Z,73.68
2019-05-25T02:54:10.152Z,74.19
2019-05-25T02:55:10.150Z,73.88
2019-05-25T02:56:10.130Z,73.27
2019-05-25T02:57:10.127Z,73.47
2019-05-25T02:58:10.109Z,73.33
2019-05-25T02:59:10.152Z,73.16
2019-05-25T03:00:10.089Z,74.69
2019-05-25T03:01:10.073Z,74.39
2019-05-25T03:02:10.070Z,74.29
2019-05-25T03:03:10.061Z,73.98
2019-05-25T03:04:10.067Z,73.88
2019-05-25T03:05:10.049Z,74.39
2019-05-25T03:06:10.057Z,74.19
2019-05-25T03:07:10.009Z,75.01
2019-05-25T03:08:10.027Z,74.80
2019-05-25T03:09:10.018Z,75.42
2019-05-25T03:10:09.983Z,75.86
2019-05-25T03:11:09.996Z,75.72
2019-05-25T03:12:09.972Z,75.24
2019-05-25T03:13:09.948Z,75.04
2019-05-25T03:14:09.962Z,75.24
2019-05-25T03:15:09.954Z,75.76
2019-05-25T03:16:09.921Z,75.35
2019-05-25T03:17:09.914Z,75.04
2019-05-25T03:18:09.898Z,75.21
2019-05-25T03:19:09.936Z,75.76
2019-05-25T03:20:09.875Z,76.47
2019-05-25T03:21:09.862Z,76.68
2019-05-25T03:22:09.857Z,76.98
2019-05-25T03:23:09.874Z,76.37
2019-05-25T03:24:09.833Z,76.51
2019-05-25T03:25:09.861Z,77.70
2019-05-25T03:26:09.812Z,76.98
2019-05-25T03:27:09.837Z,76.57
2019-05-25T03:28:09.789Z,76.47
2019-05-25T03:29:09.786Z,78.05
2019-05-25T03:30:09.843Z,77.23
2019-05-25T03:31:09.763Z,76.72
2019-05-25T03:32:09.751Z,77.94
2019-05-25T03:33:09.755Z,78.05
2019-05-25T03:34:09.734Z,78.45
2019-05-25T03:35:09.742Z,77.94
2019-05-25T03:36:09.704Z,77.12
2019-05-25T03:37:09.725Z,78.05
2019-05-25T03:38:09.708Z,77.53
2019-05-25T03:39:09.688Z,77.43
2019-05-25T03:40:09.679Z,77.43
2019-05-25T03:41:09.677Z,76.92
2019-05-25T03:42:09.646Z,76.51
2019-05-25T03:43:09.635Z,76.81
2019-05-25T03:44:09.650Z,76.72
2019-05-25T03:45:09.620Z,77.12
2019-05-25T03:46:09.615Z,77.33
2019-05-25T03:47:09.611Z,77.23
2019-05-25T03:48:09.575Z,77.53
2019-05-25T03:49:09.564Z,77.12
2019-05-25T03:50:09.556Z,77.23
2019-05-25T03:51:09.566Z,77.64
2019-05-25T03:52:09.536Z,77.64
2019-05-25T03:53:09.539Z,78.45
2019-05-25T03:54:09.523Z,78.56
2019-05-25T03:55:09.504Z,79.11
2019-05-25T03:56:09.562Z,79.93
2019-05-25T03:57:09.479Z,79.52
2019-05-25T03:58:09.492Z,79.41
2019-05-25T03:59:09.480Z,79.93
2019-05-25T04:00:09.457Z,79.93
2019-05-25T04:01:09.443Z,80.23
2019-05-25T04:02:09.456Z,80.54
2019-05-25T04:03:09.450Z,80.33
2019-05-25T04:04:09.413Z,80.85
2019-05-25T04:05:09.412Z,80.54
2019-05-25T04:06:09.414Z,81.05
2019-05-25T04:07:09.400Z,80.64
2019-05-25T04:08:09.370Z,80.64
2019-05-25T04:09:09.370Z,80.74
2019-05-25T04:10:09.343Z,80.33
2019-05-25T04:11:09.342Z,80.95
2019-05-25T04:12:09.370Z,80.74
2019-05-25T04:13:09.313Z,80.74
2019-05-25T04:14:09.319Z,80.64
2019-05-25T04:15:09.312Z,80.95
2019-05-25T04:16:09.283Z,81.36
2019-05-25T04:17:09.310Z,81.87
2019-05-25T04:18:09.252Z,81.46
2019-05-25T04:19:09.253Z,81.26
2019-05-25T04:20:09.234Z,82.32
2019-05-25T04:21:09.291Z,82.49
2019-05-25T04:22:09.218Z,82.08
2019-05-25T04:23:09.223Z,82.83
2019-05-25T04:24:09.192Z,82.83
2019-05-25T04:25:09.181Z,82.73
2019-05-25T04:26:21.993Z,82.73
2019-05-25T04:27:10.156Z,83.41
2019-05-25T04:28:09.197Z,83.04
2019-05-25T04:29:09.146Z,83.14
2019-05-25T04:30:09.126Z,82.53
2019-05-25T04:31:09.115Z,82.73
2019-05-25T04:32:09.105Z,82.32
2019-05-25T04:33:09.115Z,82.73
2019-05-25T04:34:09.087Z,83.34
2019-05-25T04:35:09.082Z,82.01
2019-05-25T04:36:09.117Z,82.73
2019-05-25T04:37:09.080Z,82.49
2019-05-25T04:38:09.063Z,83.45
2019-05-25T04:39:09.038Z,82.93
2019-05-25T04:40:09.023Z,82.73
2019-05-25T04:41:09.013Z,83.25
2019-05-25T04:42:09.002Z,83.55
2019-05-25T04:43:09.029Z,83.96
2019-05-25T04:44:08.981Z,83.31
2019-05-25T04:45:08.975Z,83.25
2019-05-25T04:46:08.961Z,83.61
2019-05-25T04:47:08.969Z,83.31
2019-05-25T04:48:08.942Z,83.10
2019-05-25T04:49:08.945Z,83.25
2019-05-25T04:50:08.918Z,84.68
2019-05-25T04:51:08.917Z,83.82
2019-05-25T04:52:08.894Z,81.40
2019-05-25T04:53:08.883Z,83.72
2019-05-25T04:54:08.892Z,84.53
2019-05-25T04:55:08.886Z,84.03
2019-05-25T04:56:08.851Z,84.84
2019-05-25T04:57:08.980Z,84.68
2019-05-25T04:58:08.833Z,84.23
2019-05-25T04:59:08.839Z,84.44
2019-05-25T05:00:08.812Z,84.12
2019-05-25T05:01:08.822Z,84.53
2019-05-25T05:02:08.786Z,84.44
2019-05-25T05:03:08.777Z,84.44
2019-05-25T05:04:08.855Z,83.20
2019-05-25T05:05:08.758Z,84.60
2019-05-25T05:06:08.747Z,84.84
2019-05-25T05:07:08.734Z,84.29
2019-05-25T05:08:08.726Z,84.80
2019-05-25T05:09:08.711Z,85.22
2019-05-25T05:10:08.740Z,84.19
2019-05-25T05:11:08.695Z,84.80
2019-05-25T05:12:08.683Z,84.50
2019-05-25T05:13:08.672Z,84.36
2019-05-25T05:14:08.659Z,84.77
2019-05-25T05:15:08.670Z,84.70
2019-05-25T05:16:08.641Z,83.95
2019-05-25T05:17:08.631Z,84.46
2019-05-25T05:18:08.617Z,84.87
2019-05-25T05:19:08.625Z,84.63
2019-05-25T05:20:08.618Z,84.52
2019-05-25T05:21:08.590Z,84.63
2019-05-25T05:22:08.577Z,85.14
2019-05-25T05:23:08.567Z,85.48
2019-05-25T05:24:08.554Z,84.63
2019-05-25T05:25:09.636Z,84.01
2019-05-25T05:26:08.530Z,85.10
2019-05-25T05:27:08.525Z,85.40
2019-05-25T05:28:08.524Z,84.79
2019-05-25T05:29:08.506Z,84.69
2019-05-25T05:30:08.521Z,84.99
2019-05-25T05:31:22.614Z,84.79
2019-05-25T05:32:09.467Z,82.75
2019-05-25T05:33:08.461Z,84.85
2019-05-25T05:34:08.447Z,83.11
2019-05-25T05:35:08.455Z,84.24
2019-05-25T05:36:08.455Z,85.26
2019-05-25T05:37:08.437Z,86.24
2019-05-25T05:38:08.408Z,84.34
2019-05-25T05:39:08.393Z,84.41
2019-05-25T05:40:08.381Z,81.44
2019-05-25T05:41:08.392Z,84.20
2019-05-25T05:42:08.366Z,84.61
2019-05-25T05:43:08.349Z,84.61
2019-05-25T05:44:08.347Z,82.26
2019-05-25T05:45:08.329Z,85.08
2019-05-25T05:46:08.348Z,84.57
2019-05-25T05:47:10.449Z,83.04
2019-05-25T05:48:08.297Z,83.95
2019-05-25T05:49:08.293Z,82.93
2019-05-25T05:50:08.278Z,84.26
2019-05-25T05:51:08.292Z,83.61
2019-05-25T05:52:08.258Z,83.75
2019-05-25T05:53:08.304Z,83.92
2019-05-25T05:54:08.232Z,83.34
2019-05-25T05:55:08.233Z,84.94
2019-05-25T05:56:08.236Z,83.30
2019-05-25T05:57:12.391Z,83.92
2019-05-25T05:58:08.194Z,84.28
2019-05-25T05:59:08.187Z,84.28
2019-05-25T06:00:08.175Z,83.87
2019-05-25T06:01:08.187Z,79.39
2019-05-25T06:02:08.155Z,82.71
2019-05-25T06:03:08.139Z,82.41
2019-05-25T06:04:08.141Z,82.00
2019-05-25T06:05:08.137Z,80.16
2019-05-25T06:06:08.110Z,81.15
2019-05-25T06:07:08.118Z,79.62
2019-05-25T06:08:08.087Z,80.64
2019-05-25T06:09:08.082Z,80.23
2019-05-25T06:10:08.067Z,80.50
2019-05-25T06:11:08.054Z,80.40
2019-05-25T06:12:08.086Z,80.40
2019-05-25T06:13:08.032Z,80.09
2019-05-25T06:14:08.024Z,79.54
2019-05-25T06:15:08.022Z,79.58
2019-05-25T06:16:07.999Z,79.17
2019-05-25T06:17:08.020Z,79.34
2019-05-25T06:18:07.982Z,79.64
2019-05-25T06:19:07.989Z,79.17
2019-05-25T06:20:07.958Z,79.85
2019-05-25T06:21:07.951Z,79.75
2019-05-25T06:22:07.958Z,78.53
2019-05-25T06:23:12.198Z,79.30
2019-05-25T06:24:07.919Z,79.50
2019-05-25T06:25:07.919Z,78.08
2019-05-25T06:26:08.269Z,78.19
2019-05-25T06:27:07.909Z,78.28
2019-05-25T06:28:07.888Z,78.19
2019-05-25T06:29:07.866Z,78.96
2019-05-25T06:30:07.890Z,77.44
2019-05-25T06:31:07.842Z,77.44
2019-05-25T06:32:07.835Z,77.67
2019-05-25T06:33:07.857Z,76.45
2019-05-25T06:34:07.813Z,77.44
2019-05-25T06:35:07.823Z,77.84
2019-05-25T06:36:07.790Z,77.74
2019-05-25T06:37:07.782Z,77.13
2019-05-25T06:38:07.792Z,77.74
2019-05-25T06:39:07.776Z,78.35
2019-05-25T06:40:07.755Z,77.94
2019-05-25T06:41:08.794Z,77.94
2019-05-25T06:42:07.727Z,77.64
2019-05-25T06:43:07.736Z,78.05
2019-05-25T06:44:07.719Z,77.81
2019-05-25T06:45:07.699Z,77.81
2019-05-25T06:46:07.688Z,77.70
2019-05-25T06:47:07.675Z,76.07
2019-05-25T06:48:07.720Z,78.62
2019-05-25T06:49:07.669Z,76.68
2019-05-25T06:50:07.640Z,76.99
2019-05-25T06:51:07.631Z,77.20
2019-05-25T06:52:07.622Z,78.31
2019-05-25T06:53:07.611Z,78.01
2019-05-25T06:54:07.628Z,78.08
2019-05-25T06:55:07.590Z,78.17
2019-05-25T06:56:07.579Z,76.65
2019-05-25T06:57:07.573Z,76.59
2019-05-25T06:58:07.567Z,76.55
2019-05-25T06:59:07.567Z,76.45
2019-05-25T07:00:07.551Z,75.84
2019-05-25T07:01:07.524Z,75.12
2019-05-25T07:02:07.516Z,75.33
2019-05-25T07:03:07.504Z,76.65
2019-05-25T07:04:07.515Z,76.65
2019-05-25T07:05:07.486Z,75.84
2019-05-25T07:06:07.471Z,76.14
2019-05-25T07:07:07.474Z,75.73
2019-05-25T07:08:07.452Z,74.58
2019-05-25T07:09:07.458Z,76.01
2019-05-25T07:10:07.433Z,74.88
2019-05-25T07:11:07.424Z,74.68
2019-05-25T07:12:07.434Z,74.68
2019-05-25T07:13:07.400Z,75.76
2019-05-25T07:14:07.444Z,74.75
2019-05-25T07:15:07.377Z,74.65
2019-05-25T07:16:07.367Z,71.40
2019-05-25T07:17:07.366Z,74.51
2019-05-25T07:18:07.344Z,74.65
2019-05-25T07:19:07.333Z,72.82
2019-05-25T07:20:07.347Z,72.92
2019-05-25T07:21:07.336Z,72.52
2019-05-25T07:22:07.302Z,73.43
2019-05-25T07:23:07.295Z,73.83
2019-05-25T07:24:07.280Z,74.21
2019-05-25T07:25:07.309Z,72.58
2019-05-25T07:26:07.289Z,73.39
2019-05-25T07:27:07.250Z,73.19
2019-05-25T07:28:07.250Z,72.45
2019-05-25T07:29:07.233Z,72.14
2019-05-25T07:30:07.432Z,72.55
2019-05-25T07:31:07.295Z,71.94
2019-05-25T07:32:07.233Z,72.72
2019-05-25T07:33:07.189Z,72.11
2019-05-25T07:34:07.180Z,73.93
2019-05-25T07:35:07.238Z,72.41
2019-05-25T07:36:07.963Z,71.50
2019-05-25T07:37:07.148Z,70.89
2019-05-25T07:38:07.197Z,71.30
2019-05-25T07:39:07.125Z,71.30
2019-05-25T07:40:07.125Z,71.40
2019-05-25T07:41:07.131Z,71.40
2019-05-25T07:42:07.089Z,71.60
2019-05-25T07:43:07.087Z,68.76
2019-05-25T07:44:14.635Z,69.27
2019-05-25T07:45:07.078Z,70.08
2019-05-25T07:46:07.070Z,70.18
2019-05-25T07:47:07.047Z,70.69
2019-05-25T07:48:07.030Z,71.06
2019-05-25T07:49:07.016Z,70.45
2019-05-25T07:50:07.029Z,71.37
2019-05-25T07:51:07.013Z,71.06
2019-05-25T07:52:06.982Z,71.03
2019-05-25T07:53:06.975Z,70.21
2019-05-25T07:54:06.969Z,70.42
2019-05-25T07:55:06.956Z,69.78
2019-05-25T07:56:06.962Z,69.10
2019-05-25T07:57:06.928Z,68.40
2019-05-25T07:58:16.640Z,70.18
2019-05-25T07:59:07.921Z,68.87
2019-05-25T08:00:06.902Z,69.88
2019-05-25T08:01:06.918Z,69.37
2019-05-25T08:02:06.878Z,68.56
2019-05-25T08:03:06.880Z,69.17
2019-05-25T08:04:06.856Z,68.56
2019-05-25T08:05:06.847Z,69.07
2019-05-25T08:06:06.859Z,68.77
2019-05-25T08:07:06.825Z,68.66
2019-05-25T08:08:06.821Z,70.18
2019-05-25T08:09:06.809Z,65.53
2019-05-25T08:10:06.823Z,65.32
2019-05-25T08:11:06.785Z,66.88
2019-05-25T08:12:06.796Z,66.37
2019-05-25T08:13:06.769Z,67.85
2019-05-25T08:14:06.748Z,67.14
2019-05-25T08:15:06.742Z,67.05
2019-05-25T08:16:06.729Z,67.25
2019-05-25T08:17:06.740Z,67.65
2019-05-25T08:18:06.704Z,69.17
2019-05-25T08:19:06.698Z,67.72
2019-05-25T08:20:06.691Z,65.42
2019-05-25T08:21:06.672Z,65.80
2019-05-25T08:22:06.695Z,67.32
2019-05-25T08:23:06.654Z,67.11
2019-05-25T08:24:06.643Z,68.53
2019-05-25T08:25:06.631Z,65.90
2019-05-25T08:26:06.621Z,66.50
2019-05-25T08:27:06.647Z,64.89
2019-05-25T08:28:06.603Z,66.61
2019-05-25T08:29:06.593Z,68.10
2019-05-25T08:30:06.579Z,68.10
2019-05-25T08:31:06.579Z,65.16
2019-05-25T08:32:06.550Z,65.87
2019-05-25T08:33:06.564Z,65.67
2019-05-25T08:34:06.533Z,65.06
2019-05-25T08:35:06.538Z,65.56
2019-05-25T08:36:06.510Z,65.77
2019-05-25T08:37:06.511Z,64.35
2019-05-25T08:38:06.514Z,65.16
2019-05-25T08:39:06.480Z,65.84
2019-05-25T08:40:06.476Z,67.25
2019-05-25T08:41:06.474Z,65.10
2019-05-25T08:42:06.457Z,66.31
2019-05-25T08:43:06.482Z,65.17
2019-05-25T08:44:06.429Z,63.38
2019-05-25T08:45:06.438Z,63.76
2019-05-25T08:46:06.405Z,62.95
2019-05-25T08:47:06.395Z,63.15
2019-05-25T08:48:06.398Z,64.16
2019-05-25T08:49:06.393Z,63.15
2019-05-25T08:50:06.367Z,64.97
2019-05-25T08:51:06.398Z,64.06
2019-05-25T08:52:06.346Z,63.45
2019-05-25T08:53:06.329Z,62.98
2019-05-25T08:54:06.345Z,63.58
2019-05-25T08:55:06.313Z,63.55
2019-05-25T08:56:06.301Z,64.70
2019-05-25T08:57:06.287Z,63.89
2019-05-25T08:58:06.295Z,62.87
2019-05-25T08:59:06.280Z,63.48
2019-05-25T09:00:06.283Z,67.43
2019-05-25T09:01:06.245Z,63.78
2019-05-25T09:02:06.259Z,65.78
2019-05-25T09:03:06.248Z,62.92
2019-05-25T09:04:06.221Z,64.53
2019-05-25T09:05:06.202Z,63.90
2019-05-25T09:06:06.201Z,62.62
2019-05-25T09:07:06.189Z,61.98
2019-05-25T09:08:06.195Z,63.09
2019-05-25T09:09:06.160Z,62.99
2019-05-25T09:10:06.148Z,62.48
2019-05-25T09:11:06.180Z,61.57
2019-05-25T09:12:06.126Z,61.04
2019-05-25T09:13:06.116Z,62.05
2019-05-25T09:14:06.130Z,62.35
2019-05-25T09:15:06.232Z,60.71
2019-05-25T09:16:06.098Z,60.53
2019-05-25T09:17:06.075Z,60.61
2019-05-25T09:18:06.297Z,59.80
2019-05-25T09:19:06.076Z,63.40
2019-05-25T09:20:06.055Z,60.08
2019-05-25T09:21:06.031Z,58.76
2019-05-25T09:22:06.029Z,58.36
2019-05-25T09:23:06.011Z,57.83
2019-05-25T09:24:06.032Z,59.27
2019-05-25T09:25:05.987Z,60.38
2019-05-25T09:26:05.983Z,59.75
2019-05-25T09:27:05.967Z,58.54
2019-05-25T09:28:05.959Z,58.74
2019-05-25T09:29:07.658Z,58.61
2019-05-25T09:30:05.940Z,58.71
2019-05-25T09:31:05.962Z,59.52
2019-05-25T09:32:07.137Z,55.99
2019-05-25T09:33:05.910Z,58.51
2019-05-25T09:34:05.941Z,57.40
2019-05-25T09:35:05.907Z,57.20
2019-05-25T09:36:05.875Z,56.60
2019-05-25T09:37:05.920Z,56.70
2019-05-25T09:38:05.853Z,60.42
2019-05-25T09:39:05.869Z,56.29
2019-05-25T09:40:05.851Z,56.92
2019-05-25T09:41:05.844Z,60.05
2019-05-25T09:42:05.811Z,60.55
2019-05-25T09:43:05.798Z,60.22
2019-05-25T09:44:05.790Z,59.69
2019-05-25T09:45:05.796Z,58.38
2019-05-25T09:46:05.769Z,57.28
2019-05-25T09:47:05.753Z,55.96
2019-05-25T09:48:05.745Z,56.57
2019-05-25T09:49:05.737Z,57.15
2019-05-25T09:50:05.746Z,57.28
2019-05-25T09:51:15.540Z,58.65
2019-05-25T09:52:06.701Z,60.27
2019-05-25T09:53:05.688Z,55.63
2019-05-25T09:54:05.677Z,55.23
2019-05-25T09:55:05.726Z,56.24
2019-05-25T09:56:05.658Z,54.71
2019-05-25T09:57:05.761Z,54.93
2019-05-25T09:58:05.642Z,55.03
2019-05-25T09:59:19.193Z,55.94
2019-05-25T10:00:06.660Z,57.55
2019-05-25T10:01:05.612Z,56.14
2019-05-25T10:02:05.599Z,57.24
2019-05-25T10:03:05.593Z,56.95
2019-05-25T10:04:05.584Z,57.55
2019-05-25T10:05:05.567Z,57.45
2019-05-25T10:06:11.935Z,57.65
2019-05-25T10:07:06.541Z,59.03
2019-05-25T10:08:05.561Z,57.72
2019-05-25T10:09:05.523Z,58.02
2019-05-25T10:10:05.510Z,57.29
2019-05-25T10:11:05.627Z,56.69
2019-05-25T10:12:05.497Z,56.79
2019-05-25T10:13:05.486Z,57.77
2019-05-25T10:14:05.477Z,56.36
2019-05-25T10:15:05.522Z,54.75
2019-05-25T10:16:05.548Z,54.02
2019-05-25T10:17:05.446Z,54.33
2019-05-25T10:18:05.436Z,53.22
2019-05-25T10:19:05.501Z,51.61
2019-05-25T10:20:05.477Z,52.64
2019-05-25T10:21:05.444Z,52.34
2019-05-25T10:22:07.201Z,53.02
2019-05-25T10:23:05.403Z,52.94
2019-05-25T10:24:05.364Z,52.82
2019-05-25T10:25:05.377Z,52.72
2019-05-25T10:26:05.347Z,52.24
2019-05-25T10:27:05.354Z,53.22
2019-05-25T10:28:05.323Z,51.42
2019-05-25T10:29:05.343Z,52.34
2019-05-25T10:30:05.301Z,52.55
2019-05-25T10:31:05.318Z,55.86
2019-05-25T10:32:05.278Z,53.62
2019-05-25T10:33:05.266Z,55.03
2019-05-25T10:34:05.295Z,54.60
2019-05-25T10:35:05.266Z,54.07
2019-05-25T10:36:05.250Z,50.16
2019-05-25T10:37:05.374Z,52.55
2019-05-25T10:38:05.224Z,51.94
2019-05-25T10:39:05.212Z,53.45
2019-05-25T10:40:12.835Z,54.22
2019-05-25T10:41:05.192Z,52.92
2019-05-25T10:42:12.759Z,50.62
2019-05-25T10:43:05.167Z,52.12
2019-05-25T10:44:12.708Z,53.00
2019-05-25T10:45:05.161Z,52.69
2019-05-25T10:46:05.144Z,51.59
2019-05-25T10:47:05.147Z,50.99
2019-05-25T10:48:05.106Z,52.72
2019-05-25T10:49:05.363Z,50.89
2019-05-25T10:50:05.088Z,52.19
2019-05-25T10:51:05.076Z,52.19
2019-05-25T10:52:05.087Z,53.27
2019-05-25T10:53:05.092Z,53.47
2019-05-25T10:54:05.092Z,52.77
2019-05-25T10:56:14.768Z,51.07
2019-05-25T10:57:14.779Z,53.27
2019-05-25T10:58:14.736Z,52.44
2019-05-25T10:59:14.726Z,50.26
2019-05-25T11:00:15.448Z,51.67
2019-05-25T11:01:14.703Z,52.74
2019-05-25T11:02:14.711Z,49.04
2019-05-25T11:03:14.752Z,51.04
2019-05-25T11:04:14.678Z,49.14
2019-05-25T11:05:14.664Z,48.94
2019-05-25T11:06:14.725Z,52.24
2019-05-25T11:07:14.663Z,51.62
2019-05-25T11:08:14.635Z,49.72
2019-05-25T11:09:14.634Z,50.29
2019-05-25T11:10:14.612Z,46.72
2019-05-25T11:11:14.615Z,48.92
2019-05-25T11:12:14.632Z,48.29
2019-05-25T11:13:22.165Z,49.79
2019-05-25T11:14:14.565Z,48.90
2019-05-25T11:15:22.201Z,48.69
2019-05-25T11:16:14.598Z,49.19
2019-05-25T11:17:22.200Z,49.09
2019-05-25T11:18:14.606Z,52.99
2019-05-25T11:19:14.550Z,49.79
2019-05-25T11:20:14.523Z,47.30
2019-05-25T11:21:14.516Z,50.42
2019-05-25T11:22:14.502Z,47.61
2019-05-25T11:23:14.514Z,47.52
2019-05-25T11:24:14.453Z,49.11
2019-05-25T11:25:14.446Z,51.12
2019-05-25T11:26:14.444Z,51.42
2019-05-25T11:27:14.433Z,49.62
2019-05-25T11:28:14.437Z,49.11
2019-05-25T11:29:14.423Z,46.12
2019-05-25T11:30:14.440Z,48.32
2019-05-25T11:31:14.464Z,49.52
2019-05-25T11:32:22.995Z,49.04
2019-05-25T11:33:14.698Z,49.11
2019-05-25T11:34:22.312Z,48.92
2019-05-25T11:35:14.443Z,51.12
2019-05-25T11:37:50.404Z,50.72
2019-05-25T11:40:33.705Z,50.77
2019-05-25T11:41:33.555Z,45.67
2019-05-25T11:42:33.547Z,46.09
2019-05-25T11:43:33.575Z,48.61
2019-05-25T11:44:33.537Z,51.12
2019-05-25T11:45:33.517Z,50.79
2019-05-25T11:46:33.506Z,49.59
2019-05-25T11:47:33.495Z,47.42
2019-05-25T11:48:33.548Z,47.31
2019-05-25T11:50:50.660Z,51.02
2019-05-25T11:51:58.138Z,49.82
2019-05-25T11:52:50.595Z,48.99
2019-05-25T11:53:58.373Z,49.40
2019-05-25T11:54:50.425Z,49.90
2019-05-25T11:55:50.397Z,51.02
2019-05-25T11:56:50.434Z,50.32
2019-05-25T11:57:50.435Z,47.72
2019-05-25T11:58:50.432Z,47.22
2019-05-25T11:59:58.122Z,48.74
2019-05-25T12:00:51.737Z,50.14
2019-05-25T12:03:08.706Z,49.64
2019-05-25T12:04:08.688Z,49.34
2019-05-25T12:05:08.623Z,48.74
2019-05-25T12:06:08.598Z,46.84
2019-05-25T12:07:08.635Z,50.32
2019-05-25T12:08:08.635Z,49.32
2019-05-25T12:09:08.568Z,47.11
2019-05-25T12:10:08.563Z,48.49
2019-05-25T12:11:08.571Z,47.97
2019-05-25T12:12:08.698Z,49.47
2019-05-25T12:13:16.189Z,47.87
2019-05-25T12:14:08.554Z,47.05
2019-05-25T12:15:08.512Z,50.45
2019-05-25T12:16:08.575Z,48.85
2019-05-25T12:17:08.484Z,49.74
2019-05-25T12:18:16.303Z,46.05
2019-05-25T12:19:08.535Z,45.57
2019-05-25T12:20:09.700Z,48.97
2019-05-25T12:21:16.000Z,47.45
2019-05-25T12:22:08.477Z,46.05
2019-05-25T12:24:18.248Z,44.45
2019-05-25T12:25:18.201Z,46.75
2019-05-25T12:26:18.239Z,45.93
2019-05-25T12:27:18.834Z,44.95
2019-05-25T12:28:18.145Z,43.25
2019-05-25T12:29:26.866Z,49.07
2019-05-25T12:30:18.167Z,47.05
2019-05-25T12:31:18.299Z,47.25
2019-05-25T12:32:18.099Z,48.82
2019-05-25T12:33:18.086Z,44.35
2019-05-25T12:34:18.106Z,45.13
2019-05-25T12:35:18.064Z,42.73
2019-05-25T12:36:18.033Z,43.95
2019-05-25T12:37:18.029Z,43.55
2019-05-25T12:38:18.039Z,44.55
2019-05-25T12:39:18.002Z,49.15
2019-05-25T12:40:18.016Z,44.95
2019-05-25T12:41:17.985Z,45.45
2019-05-25T12:42:17.969Z,45.45
2019-05-25T12:43:17.996Z,44.55
2019-05-25T12:44:18.168Z,46.77
2019-05-25T12:45:17.962Z,45.55
2019-05-25T12:46:25.606Z,46.15
2019-05-25T12:47:18.076Z,46.27
2019-05-25T12:48:25.572Z,45.45
2019-05-25T12:49:17.943Z,42.76
2019-05-25T12:50:18.307Z,45.35
2019-05-25T12:51:25.536Z,44.85
2019-05-25T12:52:18.482Z,44.05
2019-05-25T12:53:26.823Z,43.95
2019-05-25T12:54:17.931Z,44.55
2019-05-25T12:56:49.386Z,46.55
2019-05-25T12:57:51.364Z,44.55
2019-05-25T12:58:56.848Z,44.07
2019-05-25T12:59:49.366Z,43.27
2019-05-25T13:01:59.330Z,45.17
2019-05-25T13:03:06.592Z,46.80